首页
METAR-TAF:

METAR-TAF

机场 :

奥拉迪亚, 罗马尼亚

纬度: 47-03N, 经度: 021-56E, 海拔: 135米

当前天气观测

该预报发布于19分钟前的10:00 UTC
风速7节,风向北转西北,在西转西北之间变化
温度 30°C
湿度 38%
气压 1011 hPa
能见度10公里或以上
1500米以下无云,无积雨云

METAR: LROD 201000Z 33007KT 290V010 CAVOK 30/14 Q1011

时间: 13:19 (10:19 UTC)

预报

该预报发布于2小时和19分钟前的08:00 UTC
预报有效从20日的 09点(UTC)到 20日的 18点(UTC)
风速7节,风向西北
能见度10公里或以上
1500米以下无云,无积雨云
几率 40% :
短暂存在
从 20日的 12点(UTC)到 20日的 16点(UTC)
散云层高于4000英尺, 积雨云.

TAF: LROD 200800Z 2009/2018 32007KT CAVOK PROB40 TEMPO 2012/2016 SCT040CB

超过4000个机场的气象观测和天气预报(METAR&TAF报告)。

可查询的气象台以黄色和红色小点在地图上表示。

将鼠标移到小点上方,可查看气象台名称。

然后点击查看天气观测和预报。

如需切换地图:点击带黑十字的绿色按钮放大地图;点击带横线的绿色按钮缩小地图;或者点击绿色箭头查看邻近地区的地图。


METAR-TAF: